Time;durP1;ratioP1;P1;durP2;ratioP2;P2;SDS_P1;SDS_P2;PMS_P1;PMS_P2;Temp;Humidity;BMP_temperature;BMP_pressure;BME280_temperature;BME280_humidity;BME280_pressure;Samples;Min_cycle;Max_cycle;Signal;HPM_P1;HPM_P2
2021/12/16 00:03:28;;;;;;;12.23;7.40;;;9.00;98.30;;;;;;5098424;23;20446;-80
2021/12/16 00:05:49;;;;;;;10.63;6.90;;;9.00;98.30;;;;;;5097152;23;20435;-80
2021/12/16 00:07:58;;;;;;;14.20;7.30;;;9.00;98.30;;;;;;5098180;23;20436;-80
2021/12/16 00:10:14;;;;;;;14.00;7.80;;;9.00;98.30;;;;;;5099010;23;20431;-80
2021/12/16 00:29:20;;;;;;;17.57;8.77;;;8.90;98.30;;;;;;5106435;23;20477;-79
2021/12/16 00:31:33;;;;;;;11.97;8.10;;;8.90;98.30;;;;;;5099692;23;20650;-78
2021/12/16 00:33:39;;;;;;;11.50;6.50;;;9.00;98.30;;;;;;5098985;23;20486;-80
2021/12/16 00:35:47;;;;;;;12.00;7.70;;;9.00;98.30;;;;;;5098247;23;20714;-80
2021/12/16 00:37:50;;;;;;;12.87;8.70;;;8.90;98.30;;;;;;5106825;23;20422;-79
2021/12/16 00:39:53;;;;;;;14.30;8.50;;;8.90;98.30;;;;;;5098507;23;20437;-81
2021/12/16 00:42:02;;;;;;;14.43;7.57;;;8.90;98.30;;;;;;5109209;23;20776;-79
2021/12/16 00:44:12;;;;;;;12.63;6.97;;;8.90;98.30;;;;;;5108414;23;20559;-80
2021/12/16 00:46:30;;;;;;;15.50;9.73;;;8.90;98.30;;;;;;5101965;23;20420;-80
2021/12/16 00:49:01;;;;;;;12.50;7.60;;;8.90;98.30;;;;;;5101348;23;20444;-80
2021/12/16 00:55:50;;;;;;;11.37;8.30;;;8.90;98.30;;;;;;5101237;23;20422;-80
2021/12/16 00:57:53;;;;;;;17.43;8.30;;;8.90;98.30;;;;;;5110442;23;20843;-81
2021/12/16 00:59:58;;;;;;;24.43;8.37;;;8.90;98.30;;;;;;5100440;23;20437;-80
2021/12/16 01:02:15;;;;;;;16.43;8.50;;;8.90;98.30;;;;;;5099509;23;20431;-80
2021/12/16 01:04:58;;;;;;;16.70;8.60;;;8.90;98.30;;;;;;5099637;23;20459;-79
2021/12/16 01:07:17;;;;;;;17.93;8.30;;;8.90;98.30;;;;;;5107665;23;20426;-80
2021/12/16 01:10:03;;;;;;;20.40;9.90;;;8.90;98.30;;;;;;5098348;23;20472;-80
2021/12/16 01:33:59;;;;;;;19.70;10.67;;;8.90;98.30;;;;;;5100140;23;20436;-79
2021/12/16 01:36:13;;;;;;;20.47;9.90;;;9.00;98.30;;;;;;5098786;23;20465;-80
2021/12/16 01:39:03;;;;;;;16.90;9.10;;;9.00;98.30;;;;;;5107322;23;20433;-80
2021/12/16 01:49:07;;;;;;;19.17;10.47;;;8.90;98.30;;;;;;5105899;23;20460;-81
2021/12/16 01:51:19;;;;;;;30.30;11.17;;;8.90;98.30;;;;;;5097755;23;20435;-80
2021/12/16 01:53:48;;;;;;;20.17;11.80;;;8.90;98.30;;;;;;5110361;23;20406;-79
2021/12/16 01:55:56;;;;;;;32.70;14.77;;;8.90;98.30;;;;;;5102305;23;20565;-80
2021/12/16 01:58:11;;;;;;;23.13;11.20;;;8.90;98.30;;;;;;5102718;23;20415;-80
2021/12/16 02:00:24;;;;;;;25.33;12.53;;;8.90;98.30;;;;;;5103728;23;20434;-80
2021/12/16 02:02:37;;;;;;;23.80;11.97;;;8.90;98.30;;;;;;5103947;23;20502;-81
2021/12/16 02:04:54;;;;;;;25.67;12.90;;;8.90;98.30;;;;;;5100008;23;21039;-81
2021/12/16 02:07:08;;;;;;;24.20;11.50;;;8.80;98.30;;;;;;5101881;23;20435;-81
2021/12/16 02:09:20;;;;;;;31.80;14.50;;;8.90;98.30;;;;;;5107591;23;20416;-79
2021/12/16 02:11:41;;;;;;;28.40;13.50;;;8.90;98.30;;;;;;5094503;23;20704;-80
2021/12/16 02:28:46;;;;;;;30.20;14.70;;;8.90;98.30;;;;;;5023141;23;20543;-80
2021/12/16 02:33:34;;;;;;;39.10;16.13;;;8.80;98.30;;;;;;5100116;23;20421;-80
2021/12/16 02:35:44;;;;;;;33.50;15.27;;;8.80;98.30;;;;;;5095688;23;20408;-79
2021/12/16 02:37:49;;;;;;;25.20;15.70;;;8.80;98.30;;;;;;5101783;23;20930;-80
2021/12/16 02:39:52;;;;;;;32.40;15.33;;;8.80;98.30;;;;;;5094269;23;20427;-80
2021/12/16 02:41:57;;;;;;;31.90;15.57;;;8.80;98.30;;;;;;5097096;23;20430;-81
2021/12/16 02:48:46;;;;;;;31.27;14.67;;;8.70;98.30;;;;;;5093316;23;20415;-80
2021/12/16 02:50:50;;;;;;;38.70;16.50;;;8.80;98.30;;;;;;5094677;23;20431;-80
2021/12/16 02:52:54;;;;;;;46.27;16.00;;;8.70;98.30;;;;;;5103156;23;20489;-82
2021/12/16 02:54:57;;;;;;;41.27;15.17;;;8.80;98.30;;;;;;5103417;23;20465;-79
2021/12/16 02:57:00;;;;;;;35.37;15.73;;;8.80;98.30;;;;;;5105761;23;20912;-81
2021/12/16 02:59:04;;;;;;;40.53;15.40;;;8.80;98.30;;;;;;5095795;23;20484;-82
2021/12/16 03:01:11;;;;;;;33.03;15.67;;;8.80;98.30;;;;;;5098703;23;20468;-81
2021/12/16 03:03:15;;;;;;;26.27;16.20;;;8.70;98.30;;;;;;5097976;23;20428;-81
2021/12/16 03:05:19;;;;;;;29.10;15.53;;;8.80;98.30;;;;;;5096963;23;20811;-80
2021/12/16 03:07:23;;;;;;;30.83;18.10;;;8.80;98.30;;;;;;5099217;23;20516;-79
2021/12/16 03:10:04;;;;;;;47.40;16.93;;;8.80;98.30;;;;;;5097102;23;20435;-80
2021/12/16 03:12:31;;;;;;;39.07;17.20;;;8.80;98.30;;;;;;5097700;23;20469;-80
2021/12/16 03:14:41;;;;;;;33.87;16.57;;;8.80;98.30;;;;;;5096390;23;20800;-80
2021/12/16 03:16:55;;;;;;;33.57;16.50;;;8.80;98.30;;;;;;5099081;23;20486;-81
2021/12/16 03:19:10;;;;;;;32.50;17.70;;;8.80;98.30;;;;;;5105510;23;20908;-80
2021/12/16 03:21:19;;;;;;;42.67;18.40;;;8.80;98.30;;;;;;5097678;23;20426;-80
2021/12/16 03:23:30;;;;;;;32.30;15.33;;;8.80;98.30;;;;;;5103378;23;20930;-80
2021/12/16 03:25:48;;;;;;;36.60;19.60;;;8.80;98.30;;;;;;5102407;23;20434;-80
2021/12/16 03:28:22;;;;;;;35.93;17.00;;;8.80;98.30;;;;;;5095056;23;20501;-80
2021/12/16 03:35:28;;;;;;;35.60;18.03;;;8.70;98.30;;;;;;5095810;23;20451;-79
2021/12/16 03:37:32;;;;;;;30.93;16.67;;;8.70;98.30;;;;;;5095250;23;20685;-79
2021/12/16 03:39:35;;;;;;;41.40;17.37;;;8.80;98.30;;;;;;5103084;23;20547;-81
2021/12/16 03:41:39;;;;;;;31.53;16.17;;;8.80;98.30;;;;;;5095384;23;20434;-80
2021/12/16 03:43:42;;;;;;;33.17;16.17;;;8.80;98.30;;;;;;5096006;23;20455;-81
2021/12/16 03:48:17;;;;;;;46.97;18.37;;;8.80;98.30;;;;;;5104211;23;20472;-79
2021/12/16 03:50:21;;;;;;;34.43;17.13;;;8.80;98.30;;;;;;5104375;23;20425;-80
2021/12/16 03:52:25;;;;;;;42.17;19.90;;;8.80;98.30;;;;;;5096695;23;20763;-80
2021/12/16 03:54:31;;;;;;;48.50;20.20;;;8.80;98.30;;;;;;5096163;23;20458;-80
2021/12/16 03:56:34;;;;;;;43.47;19.57;;;8.70;98.30;;;;;;5091015;23;20415;-80
2021/12/16 03:58:39;;;;;;;42.57;17.90;;;8.70;98.30;;;;;;5099198;23;20522;-81
2021/12/16 04:00:47;;;;;;;41.53;19.47;;;8.70;98.30;;;;;;5091068;23;20434;-80
2021/12/16 04:02:50;;;;;;;38.97;19.80;;;8.70;98.30;;;;;;5091160;23;20419;-80
2021/12/16 04:04:54;;;;;;;43.53;19.50;;;8.70;98.30;;;;;;5091393;23;20458;-80
2021/12/16 04:06:57;;;;;;;49.33;20.60;;;8.70;98.30;;;;;;5091468;23;20916;-80
2021/12/16 04:09:00;;;;;;;59.03;24.87;;;8.70;98.30;;;;;;5091024;23;20438;-81
2021/12/16 04:11:10;;;;;;;43.73;20.37;;;8.80;98.30;;;;;;5099547;23;20895;-81
2021/12/16 04:13:16;;;;;;;44.30;21.33;;;8.70;98.30;;;;;;5099420;23;20883;-80
2021/12/16 04:15:21;;;;;;;50.90;22.60;;;8.70;98.30;;;;;;5091190;23;20857;-80
2021/12/16 04:17:26;;;;;;;53.77;21.40;;;8.70;98.30;;;;;;5092921;23;20440;-81
2021/12/16 04:19:31;;;;;;;43.00;20.60;;;8.80;98.30;;;;;;5092635;23;20437;-81
2021/12/16 04:21:34;;;;;;;50.57;21.93;;;8.80;98.30;;;;;;5100896;23;20502;-81
2021/12/16 04:23:37;;;;;;;51.30;21.43;;;8.80;98.30;;;;;;5100368;23;20430;-81
2021/12/16 04:25:47;;;;;;;37.87;20.30;;;8.80;98.30;;;;;;5092682;23;20947;-81
2021/12/16 04:27:53;;;;;;;60.00;22.37;;;8.70;98.30;;;;;;5100811;23;20429;-80
2021/12/16 04:29:57;;;;;;;57.67;26.47;;;8.80;98.30;;;;;;5092399;23;20523;-81
2021/12/16 04:32:02;;;;;;;53.57;21.30;;;8.80;98.30;;;;;;5101140;23;20426;-81
2021/12/16 04:34:06;;;;;;;61.20;23.20;;;8.80;98.30;;;;;;5092863;23;20509;-80
2021/12/16 04:36:10;;;;;;;69.83;28.83;;;8.80;98.30;;;;;;5092882;23;20909;-80
2021/12/16 04:38:14;;;;;;;59.23;22.97;;;8.70;98.30;;;;;;5092386;23;20431;-82
2021/12/16 04:40:19;;;;;;;58.87;22.73;;;8.80;98.30;;;;;;5100587;23;20437;-81
2021/12/16 04:42:25;;;;;;;62.80;22.03;;;8.80;98.30;;;;;;5093343;23;20427;-82
2021/12/16 04:44:28;;;;;;;53.60;21.20;;;8.80;98.30;;;;;;5101563;23;20457;-81
2021/12/16 04:46:32;;;;;;;48.20;21.10;;;8.80;98.30;;;;;;5101698;23;20504;-81
2021/12/16 04:48:36;;;;;;;62.03;25.87;;;8.80;98.30;;;;;;5104477;23;20429;-81
2021/12/16 04:50:39;;;;;;;52.50;21.50;;;8.80;98.30;;;;;;5105526;23;20421;-80
2021/12/16 04:52:42;;;;;;;57.53;23.23;;;8.80;98.30;;;;;;5105698;23;20427;-81
2021/12/16 04:54:47;;;;;;;57.40;23.80;;;8.80;98.30;;;;;;5104567;23;20465;-81
2021/12/16 04:56:50;;;;;;;48.07;21.93;;;8.80;98.30;;;;;;5097495;23;20534;-80
2021/12/16 04:58:55;;;;;;;51.00;22.63;;;8.80;98.30;;;;;;5096898;23;20548;-81
2021/12/16 05:00:58;;;;;;;61.17;24.00;;;8.80;98.30;;;;;;5106081;23;20441;-79
2021/12/16 05:03:01;;;;;;;51.60;21.53;;;8.80;98.30;;;;;;5097319;23;20738;-81
2021/12/16 05:05:07;;;;;;;50.13;22.97;;;8.80;98.30;;;;;;5096213;23;20928;-80
2021/12/16 05:07:10;;;;;;;56.10;22.13;;;8.80;98.30;;;;;;5104468;23;20427;-82
2021/12/16 05:09:30;;;;;;;53.60;23.73;;;8.80;98.30;;;;;;5109416;23;20427;-81
2021/12/16 05:11:35;;;;;;;59.73;23.77;;;8.90;98.30;;;;;;5108264;23;20540;-80
2021/12/16 05:13:38;;;;;;;49.77;23.13;;;8.90;98.30;;;;;;5101807;23;20430;-81
2021/12/16 05:15:42;;;;;;;64.43;21.03;;;8.90;98.30;;;;;;5101503;23;20416;-81
2021/12/16 05:17:49;;;;;;;52.30;24.57;;;8.90;98.30;;;;;;5101346;23;20426;-81
2021/12/16 05:19:53;;;;;;;52.33;22.53;;;8.90;98.30;;;;;;5100982;23;20418;-79
2021/12/16 05:24:13;;;;;;;60.73;20.60;;;9.00;98.30;;;;;;5101475;23;20504;-80
2021/12/16 05:24:25;;;;;;;67.13;27.83;;;9.00;98.30;;;;;;5093554;23;20447;-81
2021/12/16 05:26:28;;;;;;;59.70;22.90;;;9.00;98.30;;;;;;5092647;23;20457;-79
2021/12/16 05:28:31;;;;;;;55.73;25.20;;;9.00;98.30;;;;;;5091470;23;20439;-81
2021/12/16 05:30:35;;;;;;;48.83;22.80;;;9.10;98.30;;;;;;5096065;23;20442;-80
2021/12/16 05:32:40;;;;;;;50.10;20.60;;;9.10;98.30;;;;;;5096266;23;20810;-81
2021/12/16 05:34:44;;;;;;;57.67;22.20;;;9.10;98.30;;;;;;5105430;23;20461;-81
2021/12/16 05:36:47;;;;;;;42.63;19.13;;;9.00;98.30;;;;;;5104512;23;20461;-80
2021/12/16 05:38:53;;;;;;;49.60;20.50;;;9.00;98.30;;;;;;5095852;23;20441;-84
2021/12/16 05:41:00;;;;;;;44.20;19.13;;;9.00;98.30;;;;;;5098871;23;20520;-83
2021/12/16 05:43:12;;;;;;;46.10;21.20;;;9.00;98.30;;;;;;5100095;23;20423;-84
2021/12/16 05:47:42;;;;;;;40.80;19.70;;;9.00;98.30;;;;;;5090833;23;20438;-84
2021/12/16 05:52:57;;;;;;;50.00;17.93;;;8.90;98.30;;;;;;5092262;23;20464;-81
2021/12/16 05:55:01;;;;;;;44.43;19.00;;;8.90;98.30;;;;;;5103477;23;20456;-81
2021/12/16 05:57:05;;;;;;;41.53;17.80;;;8.90;98.30;;;;;;5093627;23;21028;-82
2021/12/16 05:59:11;;;;;;;41.07;17.53;;;9.00;98.30;;;;;;5100906;23;20438;-82
2021/12/16 06:01:17;;;;;;;45.93;18.57;;;9.00;98.30;;;;;;5091502;23;20427;-82
2021/12/16 06:03:21;;;;;;;49.13;20.03;;;9.00;98.30;;;;;;5101212;23;20431;-82
2021/12/16 06:05:24;;;;;;;42.47;16.67;;;9.00;98.30;;;;;;5101731;23;20952;-82
2021/12/16 06:07:27;;;;;;;41.93;17.73;;;9.00;98.30;;;;;;5100550;23;20919;-82
2021/12/16 06:09:30;;;;;;;37.53;16.20;;;9.00;98.30;;;;;;5104887;23;20433;-81
2021/12/16 06:11:35;;;;;;;47.27;18.47;;;9.00;98.30;;;;;;5105214;23;20465;-82
2021/12/16 06:13:45;;;;;;;36.87;18.17;;;9.00;98.30;;;;;;5105482;23;20427;-81
2021/12/16 06:16:02;;;;;;;41.23;17.10;;;9.00;98.30;;;;;;5105725;23;20439;-82
2021/12/16 06:27:36;;;;;;;31.10;13.83;;;9.00;98.30;;;;;;5093730;23;20431;-81
2021/12/16 06:29:41;;;;;;;35.10;16.40;;;9.00;98.30;;;;;;5101390;23;20431;-82
2021/12/16 06:31:44;;;;;;;37.57;15.03;;;9.00;98.30;;;;;;5094491;23;20510;-82
2021/12/16 06:33:47;;;;;;;35.33;16.30;;;9.10;98.30;;;;;;5102891;23;20505;-81
2021/12/16 06:35:55;;;;;;;41.77;15.70;;;9.10;98.30;;;;;;5102369;23;20878;-82
2021/12/16 06:37:58;;;;;;;32.90;15.37;;;9.10;98.30;;;;;;5093968;23;20435;-81
2021/12/16 06:40:02;;;;;;;26.07;13.80;;;9.20;98.30;;;;;;5093483;23;20431;-81
2021/12/16 06:42:08;;;;;;;30.50;14.60;;;9.20;98.30;;;;;;5094258;23;20460;-80
2021/12/16 06:44:19;;;;;;;30.23;15.00;;;9.20;98.30;;;;;;5093947;23;20452;-82
2021/12/16 06:46:31;;;;;;;40.37;16.07;;;9.20;98.30;;;;;;5102121;23;21040;-82
2021/12/16 06:48:38;;;;;;;47.17;20.97;;;9.20;98.30;;;;;;5093392;23;20498;-81
2021/12/16 06:50:47;;;;;;;46.87;22.00;;;9.20;98.30;;;;;;5094520;23;20812;-82
2021/12/16 06:52:51;;;;;;;58.73;26.77;;;9.10;98.30;;;;;;5101996;23;20419;-82
2021/12/16 06:55:05;;;;;;;33.17;18.17;;;9.20;98.30;;;;;;5102256;23;20948;-82
2021/12/16 06:57:19;;;;;;;35.20;15.87;;;9.20;98.30;;;;;;5102234;23;20429;-81
2021/12/16 06:59:28;;;;;;;29.00;13.43;;;9.20;98.30;;;;;;5102354;23;20403;-81
2021/12/16 07:01:38;;;;;;;29.93;16.70;;;9.20;98.30;;;;;;5094681;23;20415;-82
2021/12/16 07:03:47;;;;;;;35.53;15.43;;;9.20;98.30;;;;;;5095045;23;20984;-82
2021/12/16 07:05:53;;;;;;;33.70;16.20;;;9.20;98.30;;;;;;5095198;23;20469;-81
2021/12/16 07:07:57;;;;;;;33.47;15.23;;;9.20;98.30;;;;;;5094528;23;20454;-82
2021/12/16 07:10:00;;;;;;;30.60;16.00;;;9.20;98.30;;;;;;5101953;23;20426;-82
2021/12/16 07:12:05;;;;;;;32.20;15.07;;;9.20;98.30;;;;;;5094533;23;20538;-81
2021/12/16 07:14:12;;;;;;;28.30;14.00;;;9.30;98.30;;;;;;5095057;23;20458;-82
2021/12/16 07:16:17;;;;;;;31.27;13.83;;;9.30;98.30;;;;;;5101722;23;20889;-81
2021/12/16 07:18:20;;;;;;;38.90;15.50;;;9.30;98.30;;;;;;5101742;23;20431;-81
2021/12/16 07:20:26;;;;;;;39.43;15.30;;;9.30;98.30;;;;;;5094230;23;20427;-82
2021/12/16 07:22:29;;;;;;;41.10;15.30;;;9.30;98.30;;;;;;5101716;23;20470;-81
2021/12/16 07:24:32;;;;;;;36.83;16.00;;;9.30;98.30;;;;;;5093108;23;20506;-82
2021/12/16 07:26:35;;;;;;;43.70;21.97;;;9.30;98.30;;;;;;5093415;23;20461;-81
2021/12/16 07:28:38;;;;;;;63.37;27.20;;;9.30;98.30;;;;;;5093469;23;20528;-82
2021/12/16 07:30:45;;;;;;;106.53;52.37;;;9.30;98.30;;;;;;5094013;23;20404;-82
2021/12/16 07:32:49;;;;;;;44.33;21.63;;;9.40;98.30;;;;;;5093840;23;20431;-81
2021/12/16 07:34:52;;;;;;;41.07;18.10;;;9.40;98.30;;;;;;5102293;23;20467;-81
2021/12/16 07:36:55;;;;;;;34.67;15.30;;;9.40;98.30;;;;;;5094898;23;20503;-82
2021/12/16 07:38:58;;;;;;;35.37;16.37;;;9.40;98.30;;;;;;5095263;23;20437;-82
2021/12/16 07:41:01;;;;;;;37.20;17.07;;;9.40;98.30;;;;;;5096375;23;20917;-82
2021/12/16 07:43:23;;;;;;;35.80;15.67;;;9.50;98.30;;;;;;5095962;23;20441;-81
2021/12/16 07:45:28;;;;;;;33.30;16.30;;;9.50;98.30;;;;;;5103978;23;20506;-81
2021/12/16 07:47:31;;;;;;;33.87;14.33;;;9.50;98.30;;;;;;5095893;23;20450;-82
2021/12/16 07:49:39;;;;;;;37.30;15.33;;;9.50;98.30;;;;;;5104252;23;20457;-82
2021/12/16 07:51:44;;;;;;;38.43;16.03;;;9.50;98.30;;;;;;5106205;23;20430;-82
2021/12/16 07:53:47;;;;;;;36.93;16.20;;;9.40;98.30;;;;;;5101937;23;20482;-81
2021/12/16 07:55:51;;;;;;;32.20;15.40;;;9.50;98.30;;;;;;5102374;23;20423;-80
2021/12/16 07:57:54;;;;;;;34.63;14.90;;;9.50;98.30;;;;;;5101796;23;20428;-79
2021/12/16 07:59:57;;;;;;;30.10;14.17;;;9.50;98.30;;;;;;5093628;23;20921;-82
2021/12/16 08:02:00;;;;;;;43.23;18.57;;;9.50;98.30;;;;;;5102072;23;20486;-82
2021/12/16 08:04:04;;;;;;;40.83;15.90;;;9.50;98.30;;;;;;5094391;23;20468;-81
2021/12/16 08:06:11;;;;;;;29.67;12.10;;;9.50;98.30;;;;;;5094813;23;20439;-82
2021/12/16 08:08:15;;;;;;;23.80;11.70;;;9.50;98.30;;;;;;5101926;23;20437;-82
2021/12/16 08:10:21;;;;;;;24.77;12.00;;;9.50;98.30;;;;;;5101357;23;20433;-82
2021/12/16 08:12:24;;;;;;;24.27;11.67;;;9.60;98.30;;;;;;5094019;23;20439;-81
2021/12/16 08:14:29;;;;;;;26.57;12.60;;;9.50;98.30;;;;;;5093048;23;20455;-81
2021/12/16 08:16:33;;;;;;;21.60;11.00;;;9.50;98.30;;;;;;5101954;23;20424;-82
2021/12/16 08:18:36;;;;;;;23.50;11.10;;;9.50;98.30;;;;;;5092744;23;20435;-82
2021/12/16 08:20:40;;;;;;;20.37;10.63;;;9.50;98.30;;;;;;5093162;23;20823;-82
2021/12/16 08:22:45;;;;;;;20.87;11.37;;;9.40;98.30;;;;;;5100577;23;20433;-81
2021/12/16 08:24:48;;;;;;;22.13;10.60;;;9.40;98.30;;;;;;5100057;23;20452;-81
2021/12/16 08:26:53;;;;;;;17.87;10.37;;;9.40;98.30;;;;;;5091737;23;20432;-81
2021/12/16 08:28:56;;;;;;;21.57;9.70;;;9.40;98.30;;;;;;5091789;23;20432;-82
2021/12/16 08:31:00;;;;;;;19.70;9.60;;;9.40;98.30;;;;;;5100041;23;20425;-81
2021/12/16 08:33:06;;;;;;;20.17;10.30;;;9.50;98.30;;;;;;5098705;23;20419;-79
2021/12/16 08:35:10;;;;;;;18.27;9.80;;;9.50;98.30;;;;;;5098964;23;20458;-81
2021/12/16 08:37:14;;;;;;;16.87;9.67;;;9.50;98.30;;;;;;5099950;23;20421;-81
2021/12/16 08:39:19;;;;;;;18.20;10.43;;;9.40;98.30;;;;;;5099380;23;20436;-81
2021/12/16 08:41:30;;;;;;;22.37;10.00;;;9.40;98.30;;;;;;5099456;23;20424;-82
2021/12/16 08:43:33;;;;;;;18.03;9.60;;;9.40;98.30;;;;;;5099446;23;20905;-80
2021/12/16 08:45:37;;;;;;;16.80;9.33;;;9.50;98.30;;;;;;5091259;23;20503;-81
2021/12/16 08:47:43;;;;;;;19.60;10.27;;;9.50;98.30;;;;;;5095758;23;20457;-82
2021/12/16 08:49:48;;;;;;;15.43;8.80;;;9.40;98.30;;;;;;5103354;23;20424;-82
2021/12/16 08:51:54;;;;;;;15.93;9.47;;;9.50;98.30;;;;;;5096068;23;20436;-82
2021/12/16 08:53:58;;;;;;;17.77;9.50;;;9.50;98.30;;;;;;5095971;23;20983;-82
2021/12/16 08:56:04;;;;;;;17.93;8.83;;;9.60;98.30;;;;;;5098297;23;20829;-82
2021/12/16 08:58:08;;;;;;;19.13;10.30;;;9.60;98.30;;;;;;5101958;23;20424;-82
2021/12/16 09:00:14;;;;;;;20.30;9.73;;;9.60;98.30;;;;;;5100904;23;20532;-81
2021/12/16 09:02:19;;;;;;;18.30;9.47;;;9.70;98.30;;;;;;5093470;23;20424;-82
2021/12/16 09:04:25;;;;;;;16.43;9.23;;;9.70;98.30;;;;;;5094710;23;20459;-81
2021/12/16 09:06:28;;;;;;;17.47;9.67;;;9.60;98.30;;;;;;5096111;23;20416;-82
2021/12/16 09:08:31;;;;;;;14.80;8.67;;;9.60;98.30;;;;;;5095021;23;20457;-82
2021/12/16 09:10:36;;;;;;;18.37;8.43;;;9.80;98.30;;;;;;5103705;23;20425;-81
2021/12/16 09:12:53;;;;;;;20.73;8.93;;;9.90;98.30;;;;;;5103312;23;20428;-82
2021/12/16 09:14:57;;;;;;;19.30;7.93;;;9.90;98.30;;;;;;5095031;23;20458;-82
2021/12/16 09:17:00;;;;;;;10.37;7.40;;;10.00;98.30;;;;;;5094645;23;20432;-82
2021/12/16 09:19:05;;;;;;;18.70;7.47;;;10.00;98.30;;;;;;5103136;23;20448;-81
2021/12/16 09:21:13;;;;;;;16.73;7.80;;;9.90;98.30;;;;;;5103987;23;20425;-81
2021/12/16 09:23:16;;;;;;;16.80;7.90;;;10.00;98.30;;;;;;5096471;23;20428;-82
2021/12/16 09:25:20;;;;;;;15.03;7.50;;;10.10;98.30;;;;;;5104098;23;20500;-82
2021/12/16 09:27:23;;;;;;;21.67;8.53;;;10.20;98.30;;;;;;5104014;23;20431;-82
2021/12/16 09:29:27;;;;;;;13.93;8.10;;;10.30;98.30;;;;;;5103972;23;20478;-81
2021/12/16 09:31:30;;;;;;;14.63;7.20;;;10.50;98.30;;;;;;5095812;23;20930;-82
2021/12/16 09:33:33;;;;;;;14.97;8.53;;;10.60;98.30;;;;;;5104155;23;20454;-82
2021/12/16 09:35:39;;;;;;;15.23;7.20;;;10.70;98.30;;;;;;5103583;23;20427;-81
2021/12/16 09:37:42;;;;;;;11.97;8.10;;;10.80;98.30;;;;;;5096072;23;20416;-81
2021/12/16 09:39:45;;;;;;;18.10;7.40;;;10.80;98.30;;;;;;5095841;23;20442;-81
2021/12/16 09:41:51;;;;;;;13.67;7.63;;;10.80;98.30;;;;;;5095840;23;20431;-81
2021/12/16 09:43:56;;;;;;;15.90;7.97;;;10.90;98.30;;;;;;5096466;23;20448;-82
2021/12/16 09:46:04;;;;;;;12.33;7.40;;;11.00;98.30;;;;;;5096562;23;20429;-81
2021/12/16 09:48:07;;;;;;;12.33;7.70;;;11.00;98.30;;;;;;5095987;23;20445;-81
2021/12/16 09:50:14;;;;;;;16.40;8.27;;;11.00;98.30;;;;;;5104373;23;20977;-82
2021/12/16 09:52:17;;;;;;;17.70;8.27;;;10.90;98.30;;;;;;5096687;23;20429;-80
2021/12/16 09:54:24;;;;;;;12.27;7.37;;;10.90;98.30;;;;;;5104056;23;20519;-81
2021/12/16 09:56:28;;;;;;;10.20;7.20;;;11.00;98.30;;;;;;5092586;23;20432;-81
2021/12/16 09:58:41;;;;;;;16.17;7.40;;;11.00;98.30;;;;;;5092713;23;20436;-81
2021/12/16 10:00:43;;;;;;;18.83;8.63;;;11.10;98.30;;;;;;5092638;23;20438;-81
2021/12/16 10:02:48;;;;;;;13.93;7.00;;;11.10;98.30;;;;;;5100278;23;20424;-81
2021/12/16 10:04:51;;;;;;;15.90;7.50;;;11.00;98.30;;;;;;5092729;23;20966;-82
2021/12/16 10:06:57;;;;;;;9.47;5.80;;;11.10;98.30;;;;;;5092488;23;20461;-80
2021/12/16 10:09:01;;;;;;;11.20;6.10;;;11.00;98.30;;;;;;5091886;23;20477;-81
2021/12/16 10:11:06;;;;;;;17.87;7.00;;;11.00;98.30;;;;;;5092496;23;20461;-81
2021/12/16 10:13:11;;;;;;;11.87;7.17;;;11.00;98.30;;;;;;5100315;23;20420;-81
2021/12/16 10:18:02;;;;;;;12.73;6.03;;;10.90;98.30;;;;;;5092748;23;20416;-81
2021/12/16 10:20:11;;;;;;;14.37;6.40;;;11.00;98.30;;;;;;5092468;23;20511;-81
2021/12/16 10:22:21;;;;;;;9.60;5.77;;;10.90;98.30;;;;;;5100579;23;20952;-81
2021/12/16 10:24:26;;;;;;;9.60;6.00;;;10.90;98.30;;;;;;5092541;23;20454;-81
2021/12/16 10:26:29;;;;;;;15.17;5.80;;;10.90;98.30;;;;;;5093061;23;20451;-80
2021/12/16 10:28:35;;;;;;;13.43;5.20;;;10.90;98.30;;;;;;5092341;23;20509;-81
2021/12/16 10:31:02;;;;;;;10.03;5.43;;;10.90;98.30;;;;;;5092558;23;20468;-81
2021/12/16 10:33:15;;;;;;;12.07;6.50;;;10.80;98.30;;;;;;5092380;23;20415;-81
2021/12/16 10:35:26;;;;;;;20.27;6.37;;;10.80;98.30;;;;;;5092590;23;20516;-81
2021/12/16 10:37:30;;;;;;;21.27;6.60;;;10.70;98.30;;;;;;5093106;23;20784;-80
2021/12/16 10:39:33;;;;;;;13.30;4.53;;;10.70;98.30;;;;;;5100718;23;20468;-82
2021/12/16 10:41:39;;;;;;;10.37;5.30;;;10.70;98.30;;;;;;5100617;23;20500;-82
2021/12/16 10:43:46;;;;;;;16.97;5.17;;;10.70;98.30;;;;;;5092361;23;22183;-80
2021/12/16 10:45:53;;;;;;;12.17;5.00;;;10.80;98.30;;;;;;5092464;23;20429;-81
2021/12/16 10:48:20;;;;;;;12.10;5.00;;;10.80;98.30;;;;;;5100565;23;20414;-80
2021/12/16 10:50:23;;;;;;;13.50;6.43;;;10.80;98.30;;;;;;5092244;23;20427;-81
2021/12/16 10:52:29;;;;;;;13.00;5.33;;;10.80;98.30;;;;;;5092522;23;20439;-81
2021/12/16 10:54:36;;;;;;;9.30;5.40;;;10.90;98.30;;;;;;5092123;23;20460;-81
2021/12/16 10:56:53;;;;;;;16.10;6.37;;;10.90;98.30;;;;;;5092201;23;20427;-81
2021/12/16 10:59:00;;;;;;;15.10;6.83;;;10.90;98.30;;;;;;5092708;23;20414;-81
2021/12/16 11:01:04;;;;;;;11.83;5.00;;;11.00;98.30;;;;;;5093619;23;20426;-82
2021/12/16 11:03:06;;;;;;;14.00;5.60;;;10.90;98.30;;;;;;5094953;23;20817;-81
2021/12/16 11:05:15;;;;;;;14.40;6.10;;;10.90;98.30;;;;;;5101744;23;20449;-81
2021/12/16 11:07:23;;;;;;;10.93;6.10;;;10.90;98.30;;;;;;5100199;23;20716;-80
2021/12/16 11:09:40;;;;;;;11.37;6.43;;;10.90;98.30;;;;;;5091438;23;20449;-81
2021/12/16 11:11:43;;;;;;;11.63;6.03;;;10.80;98.30;;;;;;5099697;23;20897;-80
2021/12/16 11:13:45;;;;;;;15.43;7.13;;;10.80;98.30;;;;;;5091842;23;20462;-80
2021/12/16 11:15:52;;;;;;;11.03;6.50;;;10.80;98.30;;;;;;5099920;23;20434;-80
2021/12/16 11:17:58;;;;;;;16.13;7.37;;;10.80;98.30;;;;;;5091790;23;20434;-80
2021/12/16 11:20:10;;;;;;;14.67;7.27;;;10.80;98.30;;;;;;5091627;23;20416;-81
2021/12/16 11:22:18;;;;;;;14.77;7.40;;;10.90;98.30;;;;;;5099732;23;20481;-81
2021/12/16 11:24:24;;;;;;;13.03;7.20;;;11.10;98.30;;;;;;5091663;23;20778;-80
2021/12/16 11:26:33;;;;;;;16.13;7.40;;;11.10;98.30;;;;;;5091268;23;20442;-80
2021/12/16 11:28:38;;;;;;;15.67;7.10;;;11.20;98.30;;;;;;5099349;23;20423;-82
2021/12/16 11:30:47;;;;;;;15.70;8.97;;;11.20;98.30;;;;;;5091471;23;20452;-81
2021/12/16 11:32:52;;;;;;;16.17;8.07;;;11.20;98.30;;;;;;5091448;23;20432;-81
2021/12/16 11:34:55;;;;;;;19.30;8.33;;;11.20;98.30;;;;;;5099628;23;20441;-80
2021/12/16 11:36:58;;;;;;;18.20;10.87;;;11.20;98.30;;;;;;5091528;23;20468;-81
2021/12/16 11:39:07;;;;;;;13.07;7.90;;;11.50;98.30;;;;;;5091387;23;20435;-81
2021/12/16 11:41:21;;;;;;;14.60;8.03;;;11.50;98.30;;;;;;5099570;23;20426;-80
2021/12/16 11:43:36;;;;;;;14.60;8.50;;;11.50;98.30;;;;;;5099620;23;20409;-81
2021/12/16 11:45:40;;;;;;;13.23;7.93;;;11.50;98.30;;;;;;5091582;23;20478;-80
2021/12/16 11:47:50;;;;;;;18.67;9.47;;;11.50;98.30;;;;;;5099913;23;20958;-81
2021/12/16 11:49:55;;;;;;;17.27;10.23;;;11.40;98.30;;;;;;5090994;23;20480;-81
2021/12/16 11:52:02;;;;;;;14.50;8.80;;;11.30;98.30;;;;;;5091534;23;20429;-81
2021/12/16 11:54:15;;;;;;;12.53;8.17;;;11.30;98.30;;;;;;5099733;23;20459;-81
2021/12/16 11:56:20;;;;;;;11.20;7.60;;;11.30;98.30;;;;;;5091062;23;20437;-81
2021/12/16 11:58:30;;;;;;;18.50;8.50;;;11.30;98.30;;;;;;5091612;23;20433;-81
2021/12/16 12:00:38;;;;;;;13.00;7.17;;;11.40;98.30;;;;;;5091891;23;20428;-81
2021/12/16 12:02:44;;;;;;;15.53;6.80;;;11.30;98.30;;;;;;5092072;23;20815;-81
2021/12/16 12:04:47;;;;;;;12.30;5.80;;;11.30;98.30;;;;;;5092090;23;20504;-82
2021/12/16 12:06:50;;;;;;;15.63;6.40;;;11.30;98.30;;;;;;5100183;23;20429;-82
2021/12/16 12:08:55;;;;;;;11.97;5.73;;;11.30;98.30;;;;;;5092271;23;20915;-81
2021/12/16 12:11:03;;;;;;;16.60;6.73;;;11.30;98.30;;;;;;5091668;23;20455;-81
2021/12/16 12:13:08;;;;;;;14.60;6.20;;;11.40;98.30;;;;;;5091691;23;21070;-80
2021/12/16 12:15:14;;;;;;;11.57;4.60;;;11.40;98.30;;;;;;5099313;23;20449;-81
2021/12/16 12:17:21;;;;;;;13.03;4.50;;;11.50;98.30;;;;;;5099943;23;20432;-81
2021/12/16 12:19:25;;;;;;;14.03;5.10;;;11.90;98.30;;;;;;5099783;23;20427;-82
2021/12/16 12:21:35;;;;;;;14.93;5.30;;;12.40;98.30;;;;;;5091902;23;20511;-82
2021/12/16 12:23:37;;;;;;;9.47;3.97;;;13.10;98.30;;;;;;5091758;23;20744;-81
2021/12/16 12:25:40;;;;;;;11.60;4.60;;;13.50;98.30;;;;;;5091460;23;20431;-81
2021/12/16 12:27:45;;;;;;;12.10;4.00;;;13.50;98.30;;;;;;5091399;23;20822;-81
2021/12/16 12:29:50;;;;;;;10.80;4.30;;;13.50;98.30;;;;;;5091492;23;21239;-81
2021/12/16 12:31:57;;;;;;;9.60;4.90;;;13.20;98.30;;;;;;5099775;23;20458;-81
2021/12/16 12:34:01;;;;;;;12.30;4.10;;;12.90;98.30;;;;;;5099459;23;20453;-81
2021/12/16 12:36:05;;;;;;;10.13;4.47;;;12.70;98.30;;;;;;5091457;23;20809;-81